Time;durP1;ratioP1;P1;durP2;ratioP2;P2;SDS_P1;SDS_P2;PMS_P1;PMS_P2;Temp;Humidity;BMP_temperature;BMP_pressure;BME280_temperature;BME280_humidity;BME280_pressure;Samples;Min_cycle;Max_cycle;Signal;HPM_P1;HPM_P2
2022/12/22 03:25:52;;;;;;;;;;;10.60;99.90;;;;;;5038345;28;19916;-84
2022/12/22 03:28:19;;;;;;;;;;;10.60;99.90;;;;;;5038028;28;19920;-85
2022/12/22 03:30:44;;;;;;;;;;;10.60;99.90;;;;;;5019213;28;19913;-85
2022/12/22 03:33:10;;;;;;;;;;;10.70;99.90;;;;;;5019202;28;19936;-84
2022/12/22 03:35:35;;;;;;;;;;;10.70;99.90;;;;;;5019556;28;19909;-84
2022/12/22 03:38:02;;;;;;;;;;;10.70;99.90;;;;;;5019383;28;19913;-84
2022/12/22 03:40:31;;;;;;;;;;;10.70;99.90;;;;;;5018814;28;19909;-85
2022/12/22 03:48:24;;;;;;;;;;;10.70;99.90;;;;;;5036359;28;19924;-84
2022/12/22 03:50:50;;;;;;;;;;;10.70;99.90;;;;;;5017115;28;19909;-85
2022/12/22 03:53:15;;;;;;;;;;;10.70;99.90;;;;;;5017057;28;20382;-85
2022/12/22 03:55:41;;;;;;;;;;;10.80;99.90;;;;;;5017172;28;19916;-84
2022/12/22 03:58:06;;;;;;;;;;;10.80;99.90;;;;;;5034805;28;20003;-85
2022/12/22 04:00:32;;;;;;;;;;;10.80;99.90;;;;;;5017474;28;19916;-85
2022/12/22 04:02:57;;;;;;;;;;;10.80;99.90;;;;;;5017109;28;19996;-85
2022/12/22 04:05:23;;;;;;;;;;;10.80;99.90;;;;;;5018652;28;19938;-84
2022/12/22 04:07:49;;;;;;;;;;;10.80;99.90;;;;;;5021241;28;20427;-84
2022/12/22 04:12:58;;;;;;;;;;;10.80;99.90;;;;;;5038953;28;20313;-84
2022/12/22 04:15:25;;;;;;;;;;;10.80;99.90;;;;;;5039163;28;19913;-85
2022/12/22 04:17:51;;;;;;;;;;;10.90;99.90;;;;;;5020800;28;20334;-84
2022/12/22 04:20:17;;;;;;;;;;;10.90;99.90;;;;;;5020565;28;19909;-84
2022/12/22 04:22:42;;;;;;;;;;;11.00;99.90;;;;;;5019965;28;19909;-85
2022/12/22 04:25:08;;;;;;;;;;;11.00;99.90;;;;;;5020615;28;19909;-84
2022/12/22 04:27:33;;;;;;;;;;;11.00;99.90;;;;;;5020222;28;20409;-84
2022/12/22 04:29:59;;;;;;;;;;;11.00;99.90;;;;;;5019831;28;19932;-85
2022/12/22 04:32:24;;;;;;;;;;;11.10;99.90;;;;;;5019886;28;20404;-85
2022/12/22 04:34:50;;;;;;;;;;;11.10;99.90;;;;;;5019596;28;19986;-84
2022/12/22 04:37:15;;;;;;;;;;;11.10;99.90;;;;;;5019674;28;19909;-84
2022/12/22 04:39:41;;;;;;;;;;;11.10;99.90;;;;;;5019396;28;19924;-84
2022/12/22 04:42:06;;;;;;;;;;;11.10;99.90;;;;;;5018248;28;19916;-84
2022/12/22 04:44:32;;;;;;;;;;;11.10;99.90;;;;;;5036465;28;19935;-83
2022/12/22 04:46:57;;;;;;;;;;;11.10;99.90;;;;;;5036186;28;19920;-83
2022/12/22 04:49:23;;;;;;;;;;;11.10;99.90;;;;;;5036144;28;19999;-84
2022/12/22 04:51:48;;;;;;;;;;;11.10;99.90;;;;;;5037015;28;20286;-83
2022/12/22 04:54:13;;;;;;;;;;;11.10;99.90;;;;;;5019497;28;19960;-84
2022/12/22 04:56:39;;;;;;;;;;;11.10;99.90;;;;;;5019462;28;19909;-82
2022/12/22 04:59:04;;;;;;;;;;;11.00;99.90;;;;;;5018497;28;20402;-83
2022/12/22 05:01:30;;;;;;;;;;;11.00;99.90;;;;;;5018642;28;20282;-84
2022/12/22 05:03:55;;;;;;;;;;;11.00;99.90;;;;;;5019488;28;19916;-84
2022/12/22 05:06:21;;;;;;;;;;;11.00;99.90;;;;;;5018759;28;19963;-83
2022/12/22 05:08:46;;;;;;;;;;;11.10;99.90;;;;;;5018700;28;19916;-82
2022/12/22 05:11:12;;;;;;;;;;;11.10;99.90;;;;;;5036000;28;19978;-84
2022/12/22 05:13:37;;;;;;;;;;;11.10;99.90;;;;;;5018572;28;19917;-83
2022/12/22 05:16:04;;;;;;;;;;;11.10;99.90;;;;;;5018281;28;20298;-83
2022/12/22 05:18:29;;;;;;;;;;;11.20;99.90;;;;;;5018484;28;20381;-84
2022/12/22 05:20:55;;;;;;;;;;;11.20;99.90;;;;;;5017516;28;19910;-82
2022/12/22 05:23:20;;;;;;;;;;;11.20;99.90;;;;;;5017519;28;20329;-83
2022/12/22 05:25:45;;;;;;;;;;;11.20;99.90;;;;;;5035248;28;19916;-82
2022/12/22 05:28:11;;;;;;;;;;;11.20;99.90;;;;;;5017520;28;19913;-84
2022/12/22 05:30:36;;;;;;;;;;;11.20;99.90;;;;;;5035210;28;20004;-84
2022/12/22 05:33:02;;;;;;;;;;;11.30;99.90;;;;;;5017101;28;19909;-84
2022/12/22 05:35:27;;;;;;;;;;;11.30;99.90;;;;;;5017600;28;19913;-83
2022/12/22 05:37:53;;;;;;;;;;;11.20;99.90;;;;;;5017260;28;19909;-82
2022/12/22 05:40:18;;;;;;;;;;;11.20;99.90;;;;;;5017025;28;19952;-84
2022/12/22 05:42:44;;;;;;;;;;;11.20;99.90;;;;;;5018983;28;19974;-84
2022/12/22 05:45:14;;;;;;;;;;;11.30;99.90;;;;;;5033664;28;19948;-83
2022/12/22 05:47:40;;;;;;;;;;;11.30;99.90;;;;;;5033834;28;20458;-82
2022/12/22 05:50:06;;;;;;;;;;;11.40;99.90;;;;;;5034681;28;19917;-83
2022/12/22 05:52:32;;;;;;;;;;;11.40;99.90;;;;;;5033087;28;19909;-82
2022/12/22 05:54:57;;;;;;;;;;;11.40;99.90;;;;;;5033317;28;19996;-84
2022/12/22 05:57:23;;;;;;;;;;;11.40;99.90;;;;;;5033322;28;19909;-84
2022/12/22 05:59:48;;;;;;;;;;;11.40;99.90;;;;;;5033171;28;19920;-83
2022/12/22 06:02:13;;;;;;;;;;;11.50;99.90;;;;;;5034128;28;19920;-81
2022/12/22 06:04:39;;;;;;;;;;;11.50;99.90;;;;;;5034172;28;19939;-83
2022/12/22 06:07:04;;;;;;;;;;;11.50;99.90;;;;;;5032871;28;20294;-83
2022/12/22 06:09:30;;;;;;;;;;;11.40;99.90;;;;;;5034056;28;19912;-83
2022/12/22 06:11:55;;;;;;;;;;;11.40;99.90;;;;;;5032459;28;20355;-84
2022/12/22 06:14:21;;;;;;;;;;;11.30;99.90;;;;;;5033986;28;19909;-83
2022/12/22 06:16:46;;;;;;;;;;;11.30;99.90;;;;;;5034244;28;19955;-82
2022/12/22 06:19:12;;;;;;;;;;;11.40;99.90;;;;;;5033860;28;20367;-82
2022/12/22 06:21:37;;;;;;;;;;;11.40;99.90;;;;;;5032289;28;19909;-83
2022/12/22 06:24:03;;;;;;;;;;;11.30;99.90;;;;;;5032530;28;19963;-83
2022/12/22 06:26:29;;;;;;;;;;;11.20;99.90;;;;;;5033774;28;19945;-83
2022/12/22 06:28:54;;;;;;;;;;;11.30;99.90;;;;;;5031950;28;19909;-83
2022/12/22 06:31:20;;;;;;;;;;;11.30;99.90;;;;;;5032409;28;19910;-83
2022/12/22 06:33:45;;;;;;;;;;;11.30;99.90;;;;;;5032975;28;19909;-82
2022/12/22 06:36:11;;;;;;;;;;;11.30;99.90;;;;;;5033657;28;20363;-83
2022/12/22 06:38:36;;;;;;;;;;;11.30;99.90;;;;;;5032298;28;19936;-84
2022/12/22 06:41:02;;;;;;;;;;;11.30;99.90;;;;;;5031912;28;20437;-83
2022/12/22 06:43:27;;;;;;;;;;;11.40;99.90;;;;;;5031778;28;19987;-83
2022/12/22 06:45:53;;;;;;;;;;;11.40;99.90;;;;;;5033454;28;19916;-82
2022/12/22 06:48:18;;;;;;;;;;;11.40;99.90;;;;;;5031954;28;20367;-83
2022/12/22 06:50:44;;;;;;;;;;;11.40;99.90;;;;;;5032227;28;20290;-82
2022/12/22 06:53:09;;;;;;;;;;;11.40;99.90;;;;;;5031750;28;19909;-83
2022/12/22 06:55:35;;;;;;;;;;;11.40;99.90;;;;;;5033366;28;20290;-82
2022/12/22 06:58:01;;;;;;;;;;;11.30;99.90;;;;;;5031718;28;19909;-83
2022/12/22 07:00:26;;;;;;;;;;;11.30;99.90;;;;;;5033264;28;19913;-83
2022/12/22 07:02:52;;;;;;;;;;;11.30;99.90;;;;;;5031443;28;19962;-82
2022/12/22 07:05:17;;;;;;;;;;;11.30;99.90;;;;;;5031782;28;19909;-83
2022/12/22 07:07:43;;;;;;;;;;;11.30;99.90;;;;;;5031637;28;20061;-83
2022/12/22 07:10:09;;;;;;;;;;;11.20;99.90;;;;;;5031566;28;20363;-82
2022/12/22 07:12:34;;;;;;;;;;;11.30;99.90;;;;;;5032744;28;19914;-82
2022/12/22 07:15:00;;;;;;;;;;;11.30;99.90;;;;;;5031473;28;19963;-82
2022/12/22 07:17:25;;;;;;;;;;;11.30;99.90;;;;;;5031622;28;20271;-82
2022/12/22 07:19:50;;;;;;;;;;;11.30;99.90;;;;;;5031649;28;19909;-82
2022/12/22 07:22:16;;;;;;;;;;;11.20;99.90;;;;;;5031279;28;19909;-82
2022/12/22 07:24:41;;;;;;;;;;;11.20;99.90;;;;;;5032904;28;20004;-82
2022/12/22 07:27:07;;;;;;;;;;;11.30;99.90;;;;;;5031365;28;19913;-83
2022/12/22 07:29:35;;;;;;;;;;;11.30;99.90;;;;;;5031550;28;20327;-82
2022/12/22 07:32:00;;;;;;;;;;;11.30;99.90;;;;;;5032114;28;19913;-82
2022/12/22 07:34:25;;;;;;;;;;;11.30;99.90;;;;;;5031210;28;19972;-84
2022/12/22 07:36:51;;;;;;;;;;;11.30;99.90;;;;;;5032446;28;20008;-82
2022/12/22 07:39:17;;;;;;;;;;;11.10;99.90;;;;;;5032464;28;19932;-84
2022/12/22 07:44:27;;;;;;;;;;;11.10;99.90;;;;;;5036946;28;19924;-83
2022/12/22 07:46:52;;;;;;;;;;;11.10;99.90;;;;;;5036178;28;20276;-83
2022/12/22 07:52:02;;;;;;;;;;;11.10;99.90;;;;;;5035990;28;19916;-83
2022/12/22 07:54:28;;;;;;;;;;;11.10;99.90;;;;;;5018334;28;19909;-83
2022/12/22 07:56:53;;;;;;;;;;;11.10;99.90;;;;;;5036171;28;19913;-83
2022/12/22 07:59:19;;;;;;;;;;;11.10;99.90;;;;;;5018351;28;19916;-84
2022/12/22 08:01:45;;;;;;;;;;;11.10;99.90;;;;;;5018054;28;19909;-83
2022/12/22 08:04:11;;;;;;;;;;;11.00;99.90;;;;;;5018145;28;20020;-83
2022/12/22 08:06:37;;;;;;;;;;;11.00;99.90;;;;;;5018055;28;20012;-83
2022/12/22 08:09:03;;;;;;;;;;;11.00;99.90;;;;;;5035886;28;19910;-83
2022/12/22 08:11:28;;;;;;;;;;;10.90;99.90;;;;;;5035498;28;20422;-83
2022/12/22 08:13:54;;;;;;;;;;;10.80;99.90;;;;;;5035796;28;19913;-83
2022/12/22 08:16:21;;;;;;;;;;;10.80;99.90;;;;;;5018005;28;20359;-83
2022/12/22 08:18:46;;;;;;;;;;;10.70;99.90;;;;;;5017922;28;19909;-83
2022/12/22 08:21:12;;;;;;;;;;;10.70;99.90;;;;;;5017612;28;19917;-83
2022/12/22 08:23:37;;;;;;;;;;;10.80;99.90;;;;;;5017767;28;19913;-83
2022/12/22 08:26:06;;;;;;;;;;;10.70;99.90;;;;;;5017957;28;19913;-83
2022/12/22 08:28:34;;;;;;;;;;;10.70;99.90;;;;;;5035571;28;20438;-83
2022/12/22 08:31:00;;;;;;;;;;;10.70;99.90;;;;;;5017539;28;20008;-83
2022/12/22 08:33:25;;;;;;;;;;;10.70;99.90;;;;;;5035380;28;19936;-83
2022/12/22 08:35:51;;;;;;;;;;;10.70;99.90;;;;;;5017729;28;19909;-84
2022/12/22 08:38:16;;;;;;;;;;;10.60;99.90;;;;;;5017667;28;20000;-83
2022/12/22 08:40:44;;;;;;;;;;;10.60;99.90;;;;;;5017556;28;19915;-83
2022/12/22 08:43:10;;;;;;;;;;;10.60;99.90;;;;;;5022880;28;19917;-83
2022/12/22 08:45:35;;;;;;;;;;;10.60;99.90;;;;;;5033936;28;20353;-83
2022/12/22 08:48:01;;;;;;;;;;;10.60;99.90;;;;;;5033988;28;19952;-83
2022/12/22 08:50:26;;;;;;;;;;;10.50;99.90;;;;;;5033139;28;19909;-83
2022/12/22 08:52:52;;;;;;;;;;;10.60;99.90;;;;;;5034890;28;19964;-83
2022/12/22 08:55:17;;;;;;;;;;;10.50;99.90;;;;;;5033835;28;19916;-83
2022/12/22 08:57:42;;;;;;;;;;;10.60;99.90;;;;;;5033734;28;19959;-83
2022/12/22 09:00:09;;;;;;;;;;;10.60;99.90;;;;;;5034985;28;19952;-82
2022/12/22 09:02:35;;;;;;;;;;;10.70;99.90;;;;;;5033174;28;19913;-82
2022/12/22 09:05:00;;;;;;;;;;;10.70;99.90;;;;;;5033591;28;19910;-83
2022/12/22 09:07:26;;;;;;;;;;;10.60;99.90;;;;;;5034817;28;19920;-83
2022/12/22 09:09:51;;;;;;;;;;;10.60;99.90;;;;;;5033387;28;19913;-83
2022/12/22 09:12:17;;;;;;;;;;;10.70;99.90;;;;;;5034397;28;19936;-83
2022/12/22 09:14:43;;;;;;;;;;;10.70;99.90;;;;;;5034714;28;19909;-83
2022/12/22 09:17:08;;;;;;;;;;;10.70;99.90;;;;;;5033476;28;19955;-83
2022/12/22 09:19:33;;;;;;;;;;;10.60;99.90;;;;;;5033283;28;20359;-83
2022/12/22 09:21:59;;;;;;;;;;;10.70;99.90;;;;;;5032996;28;19955;-83
2022/12/22 09:24:24;;;;;;;;;;;10.70;99.90;;;;;;5033186;28;19909;-83
2022/12/22 09:26:50;;;;;;;;;;;10.70;99.90;;;;;;5033109;28;19983;-83
2022/12/22 09:29:15;;;;;;;;;;;10.80;99.90;;;;;;5033141;28;19952;-84
2022/12/22 09:31:41;;;;;;;;;;;10.80;99.90;;;;;;5034144;28;19909;-83
2022/12/22 09:34:07;;;;;;;;;;;10.80;99.90;;;;;;5034326;28;20281;-83
2022/12/22 09:36:32;;;;;;;;;;;10.80;99.90;;;;;;5033045;28;20012;-83
2022/12/22 09:38:58;;;;;;;;;;;10.90;99.90;;;;;;5033080;28;20007;-83
2022/12/22 09:41:27;;;;;;;;;;;11.00;99.90;;;;;;5032670;28;19913;-84
2022/12/22 09:43:54;;;;;;;;;;;11.10;99.90;;;;;;5032621;28;19924;-83
2022/12/22 09:46:22;;;;;;;;;;;11.10;99.90;;;;;;5032756;28;19909;-83
2022/12/22 09:48:48;;;;;;;;;;;11.10;99.90;;;;;;5032812;28;19921;-83
2022/12/22 09:51:13;;;;;;;;;;;11.00;99.90;;;;;;5032454;28;19936;-83
2022/12/22 09:53:40;;;;;;;;;;;11.00;99.90;;;;;;5028664;28;19913;-82
2022/12/22 09:56:05;;;;;;;;;;;11.00;99.90;;;;;;5031942;28;19910;-83
2022/12/22 09:58:33;;;;;;;;;;;11.20;99.90;;;;;;5032426;28;20267;-84
2022/12/22 10:01:10;;;;;;;;;;;11.10;99.90;;;;;;5032164;28;20331;-83
2022/12/22 10:03:35;;;;;;;;;;;11.10;99.90;;;;;;5032551;28;19909;-83
2022/12/22 10:06:16;;;;;;;;;;;11.10;99.90;;;;;;5029076;28;19933;-83
2022/12/22 10:08:41;;;;;;;;;;;11.10;99.90;;;;;;5029907;28;19917;-83
2022/12/22 10:11:11;;;;;;;;;;;11.00;99.90;;;;;;5031559;28;19959;-84
2022/12/22 10:13:36;;;;;;;;;;;11.10;99.90;;;;;;5033374;28;19915;-83
2022/12/22 10:16:14;;;;;;;;;;;11.40;99.90;;;;;;5032122;28;19909;-87
2022/12/22 10:18:52;;;;;;;;;;;11.70;99.90;;;;;;5033316;28;19916;-85
2022/12/22 10:21:21;;;;;;;;;;;11.80;99.90;;;;;;5031703;28;19948;-82
2022/12/22 10:23:47;;;;;;;;;;;11.70;99.90;;;;;;5031923;28;19952;-84
2022/12/22 10:26:16;;;;;;;;;;;11.70;99.90;;;;;;5030284;28;19913;-84
2022/12/22 10:28:43;;;;;;;;;;;11.50;99.90;;;;;;5031562;28;20336;-83
2022/12/22 10:31:08;;;;;;;;;;;11.40;99.90;;;;;;5032441;28;19917;-84
2022/12/22 10:33:34;;;;;;;;;;;11.30;99.90;;;;;;5031820;28;19909;-84
2022/12/22 10:35:59;;;;;;;;;;;11.20;99.90;;;;;;5031696;28;20000;-84
2022/12/22 10:38:32;;;;;;;;;;;11.10;99.90;;;;;;5031728;28;19910;-85
2022/12/22 10:41:01;;;;;;;;;;;11.20;99.90;;;;;;5032310;28;20000;-83
2022/12/22 10:43:27;;;;;;;;;;;11.20;99.90;;;;;;5031179;28;20462;-84
2022/12/22 10:45:54;;;;;;;;;;;11.10;99.90;;;;;;5031321;28;19909;-83
2022/12/22 10:48:36;;;;;;;;;;;11.10;99.90;;;;;;5032699;28;19970;-83
2022/12/22 10:51:04;;;;;;;;;;;11.00;99.90;;;;;;5031103;28;20412;-82
2022/12/22 10:53:51;;;;;;;;;;;10.80;99.90;;;;;;5031709;28;19946;-83
2022/12/22 10:56:21;;;;;;;;;;;10.80;99.90;;;;;;5032809;28;19909;-83
2022/12/22 10:58:51;;;;;;;;;;;10.90;99.90;;;;;;5031409;28;19932;-82
2022/12/22 11:01:25;;;;;;;;;;;11.10;99.90;;;;;;5031164;28;19908;-83
2022/12/22 11:03:51;;;;;;;;;;;11.20;99.90;;;;;;5018542;28;19910;-83
2022/12/22 11:06:17;;;;;;;;;;;11.30;99.90;;;;;;5027991;28;19916;-83
2022/12/22 11:08:43;;;;;;;;;;;11.30;99.90;;;;;;5013133;28;20291;-84
2022/12/22 11:11:13;;;;;;;;;;;11.40;99.90;;;;;;5030981;28;19909;-84
2022/12/22 11:13:53;;;;;;;;;;;11.50;99.90;;;;;;5030885;28;19909;-84
2022/12/22 11:16:41;;;;;;;;;;;11.70;99.90;;;;;;5031561;28;19916;-84
2022/12/22 11:19:17;;;;;;;;;;;11.40;99.90;;;;;;5031225;28;19916;-84
2022/12/22 11:21:53;;;;;;;;;;;11.30;99.90;;;;;;5030954;28;19943;-84
2022/12/22 11:24:20;;;;;;;;;;;11.20;99.90;;;;;;5031228;28;19909;-84
2022/12/22 11:27:18;;;;;;;;;;;11.00;99.90;;;;;;5031243;28;19920;-82
2022/12/22 11:29:52;;;;;;;;;;;11.00;99.90;;;;;;5031133;28;19913;-84
2022/12/22 11:32:36;;;;;;;;;;;11.00;99.90;;;;;;5030606;28;19909;-84
2022/12/22 11:35:02;;;;;;;;;;;10.90;99.90;;;;;;5031473;28;19913;-85
2022/12/22 11:37:55;;;;;;;;;;;10.90;99.90;;;;;;5032618;28;19955;-84
2022/12/22 11:40:39;;;;;;;;;;;11.00;99.90;;;;;;5027185;28;19920;-83
2022/12/22 11:43:08;;;;;;;;;;;10.90;99.90;;;;;;5031835;28;19948;-84
2022/12/22 11:45:37;;;;;;;;;;;11.00;99.90;;;;;;5014689;28;19953;-84
2022/12/22 11:48:22;;;;;;;;;;;11.10;99.90;;;;;;5015048;28;19958;-84
2022/12/22 11:50:49;;;;;;;;;;;11.20;99.90;;;;;;5014468;28;19910;-85
2022/12/22 11:53:38;;;;;;;;;;;11.40;99.90;;;;;;5031645;28;20389;-84
2022/12/22 11:56:04;;;;;;;;;;;11.80;99.90;;;;;;5015268;28;20393;-84
2022/12/22 11:58:40;;;;;;;;;;;12.00;99.90;;;;;;5015038;28;19909;-84
2022/12/22 12:01:23;;;;;;;;;;;12.10;99.90;;;;;;5014464;28;19972;-84
2022/12/22 12:03:55;;;;;;;;;;;12.10;99.90;;;;;;5032327;28;19913;-83
2022/12/22 12:06:26;;;;;;;;;;;11.90;99.90;;;;;;5032617;28;19913;-84
2022/12/22 12:09:05;;;;;;;;;;;12.00;99.90;;;;;;5014479;28;19909;-83
2022/12/22 12:11:49;;;;;;;;;;;11.80;99.90;;;;;;5031363;28;19920;-83
2022/12/22 12:14:18;;;;;;;;;;;11.60;99.90;;;;;;5032305;28;19909;-84
2022/12/22 12:17:01;;;;;;;;;;;11.60;99.90;;;;;;5033091;28;19921;-83
2022/12/22 12:19:36;;;;;;;;;;;11.80;99.90;;;;;;5014634;28;20259;-83
2022/12/22 12:22:07;;;;;;;;;;;12.80;99.90;;;;;;5032090;28;20256;-82
2022/12/22 12:24:48;;;;;;;;;;;13.50;99.90;;;;;;5014689;28;19909;-82
2022/12/22 12:27:32;;;;;;;;;;;14.90;99.90;;;;;;5016874;28;19917;-82
2022/12/22 12:30:12;;;;;;;;;;;17.40;99.90;;;;;;5035533;28;19996;-82
2022/12/22 12:32:58;;;;;;;;;;;18.70;99.90;;;;;;5035259;28;19979;-80
2022/12/22 12:35:23;;;;;;;;;;;19.90;99.90;;;;;;5017517;28;19917;-80
2022/12/22 12:37:51;;;;;;;;;;;20.80;99.90;;;;;;5017890;28;20370;-81
2022/12/22 12:40:20;;;;;;;;;;;21.40;99.90;;;;;;5017546;28;20270;-80
2022/12/22 12:42:46;;;;;;;;;;;20.00;99.90;;;;;;5020093;28;19917;-81
2022/12/22 12:45:30;;;;;;;;;;;19.40;99.90;;;;;;5035524;28;20359;-81
2022/12/22 12:48:15;;;;;;;;;;;18.90;99.90;;;;;;5034412;28;20341;-81
2022/12/22 12:50:41;;;;;;;;;;;18.40;99.90;;;;;;5034258;28;20293;-81
2022/12/22 12:53:08;;;;;;;;;;;19.00;99.90;;;;;;5033828;28;20011;-83
2022/12/22 12:55:39;;;;;;;;;;;20.40;99.90;;;;;;5030328;28;19913;-82
2022/12/22 12:58:08;;;;;;;;;;;20.90;99.90;;;;;;5014489;28;19909;-83
2022/12/22 13:00:34;;;;;;;;;;;21.60;99.90;;;;;;5016421;28;19913;-83
2022/12/22 13:03:04;;;;;;;;;;;21.20;99.90;;;;;;5016057;28;19963;-82
2022/12/22 13:05:32;;;;;;;;;;;20.60;99.90;;;;;;5015946;28;19917;-82
2022/12/22 13:08:03;;;;;;;;;;;19.20;99.90;;;;;;5016723;28;19914;-82
2022/12/22 13:10:29;;;;;;;;;;;19.30;99.90;;;;;;5016703;28;19910;-83
2022/12/22 13:12:56;;;;;;;;;;;18.60;99.90;;;;;;5016233;28;20382;-82
2022/12/22 13:15:29;;;;;;;;;;;17.70;99.90;;;;;;5015288;28;19981;-82
2022/12/22 13:17:55;;;;;;;;;;;16.30;99.90;;;;;;5015314;28;19917;-82
2022/12/22 13:20:26;;;;;;;;;;;15.50;99.90;;;;;;5015887;28;19909;-81
2022/12/22 13:22:52;;;;;;;;;;;14.80;99.90;;;;;;5015013;28;20310;-81
2022/12/22 13:25:17;;;;;;;;;;;14.10;99.90;;;;;;5015716;28;19910;-82
2022/12/22 13:27:43;;;;;;;;;;;13.70;99.90;;;;;;5014739;28;20011;-82
2022/12/22 13:30:15;;;;;;;;;;;13.70;99.90;;;;;;5015405;28;19910;-81
2022/12/22 13:32:42;;;;;;;;;;;13.90;99.90;;;;;;5013801;28;19915;-81
2022/12/22 13:35:13;;;;;;;;;;;14.40;99.90;;;;;;5015714;28;19910;-82
2022/12/22 13:37:41;;;;;;;;;;;14.40;99.90;;;;;;5013900;28;20367;-81
2022/12/22 13:40:16;;;;;;;;;;;14.60;99.90;;;;;;5015455;28;19967;-82
2022/12/22 13:42:42;;;;;;;;;;;14.70;99.90;;;;;;5039030;23;19921;-82
2022/12/22 13:45:21;;;;;;;;;;;14.40;99.90;;;;;;5031828;28;19921;-81
2022/12/22 13:47:47;;;;;;;;;;;14.30;99.90;;;;;;5035944;28;19921;-82
2022/12/22 13:50:17;;;;;;;;;;;14.00;99.90;;;;;;5035456;28;20314;-82
2022/12/22 13:52:42;;;;;;;;;;;14.00;99.90;;;;;;5034744;28;20347;-82
2022/12/22 13:55:13;;;;;;;;;;;13.80;99.90;;;;;;5019189;28;19913;-82
2022/12/22 13:57:38;;;;;;;;;;;13.60;99.90;;;;;;5009120;28;19913;-82
2022/12/22 14:00:04;;;;;;;;;;;13.30;99.90;;;;;;5033380;28;19913;-85
2022/12/22 14:02:31;;;;;;;;;;;13.20;99.90;;;;;;5034121;28;19913;-82
2022/12/22 14:05:07;;;;;;;;;;;13.00;99.90;;;;;;5033135;28;19917;-82
2022/12/22 14:07:32;;;;;;;;;;;13.00;99.90;;;;;;5032284;28;20347;-82
2022/12/22 14:09:58;;;;;;;;;;;13.00;99.90;;;;;;5020054;28;20003;-82
2022/12/22 14:12:25;;;;;;;;;;;12.90;99.90;;;;;;5015094;28;19909;-82
2022/12/22 14:14:51;;;;;;;;;;;12.70;99.90;;;;;;5033333;28;19916;-82
2022/12/22 14:17:17;;;;;;;;;;;12.50;99.90;;;;;;5033551;28;19949;-82
2022/12/22 14:19:42;;;;;;;;;;;12.40;99.90;;;;;;5015775;28;19909;-82
2022/12/22 14:22:13;;;;;;;;;;;12.50;99.90;;;;;;5015256;28;19963;-81
2022/12/22 14:24:43;;;;;;;;;;;12.60;99.90;;;;;;5015685;28;19913;-82
2022/12/22 14:27:35;;;;;;;;;;;12.70;99.90;;;;;;5015639;28;19924;-82
2022/12/22 14:30:02;;;;;;;;;;;12.60;99.90;;;;;;5030063;28;19924;-83
2022/12/22 14:32:32;;;;;;;;;;;12.50;99.90;;;;;;5014870;28;19916;-82
2022/12/22 14:34:57;;;;;;;;;;;12.50;99.90;;;;;;5015016;28;19992;-83
2022/12/22 14:37:23;;;;;;;;;;;12.40;99.90;;;;;;5015819;28;20504;-82
2022/12/22 14:39:53;;;;;;;;;;;12.40;99.90;;;;;;5015817;28;19909;-82
2022/12/22 14:42:19;;;;;;;;;;;12.30;99.90;;;;;;5015053;28;19963;-82
2022/12/22 14:44:46;;;;;;;;;;;12.30;99.90;;;;;;5049342;28;19980;-82
2022/12/22 14:47:13;;;;;;;;;;;12.30;99.90;;;;;;5052393;28;19919;-81
2022/12/22 14:49:42;;;;;;;;;;;12.30;99.90;;;;;;5050981;28;19909;-81
2022/12/22 14:52:15;;;;;;;;;;;12.30;99.90;;;;;;5054346;28;19909;-81
2022/12/22 14:54:44;;;;;;;;;;;12.30;99.90;;;;;;5052012;28;20389;-82
2022/12/22 14:57:10;;;;;;;;;;;12.30;99.90;;;;;;5051366;28;19913;-81
2022/12/22 14:59:35;;;;;;;;;;;12.20;99.90;;;;;;5052535;28;19913;-83
2022/12/22 15:02:03;;;;;;;;;;;12.20;99.90;;;;;;5051015;28;20366;-83
2022/12/22 15:04:28;;;;;;;;;;;12.20;99.90;;;;;;5051230;28;19913;-82
2022/12/22 15:07:15;;;;;;;;;;;12.20;99.90;;;;;;5051997;28;19923;-84
2022/12/22 15:09:40;;;;;;;;;;;12.10;99.90;;;;;;5051590;28;20425;-83
2022/12/22 15:12:09;;;;;;;;;;;12.00;99.90;;;;;;5052256;28;19916;-83
2022/12/22 15:14:36;;;;;;;;;;;12.00;99.90;;;;;;5051165;28;19908;-82
2022/12/22 15:17:03;;;;;;;;;;;12.00;99.90;;;;;;5051059;28;20330;-83
2022/12/22 15:19:30;;;;;;;;;;;12.00;99.90;;;;;;5052371;28;19952;-83
2022/12/22 15:21:55;;;;;;;;;;;12.00;99.90;;;;;;5050834;28;20007;-82
2022/12/22 15:24:21;;;;;;;;;;;12.00;99.90;;;;;;5051019;28;19944;-83
2022/12/22 15:26:46;;;;;;;;;;;12.00;99.90;;;;;;5052260;28;20389;-82
2022/12/22 15:29:12;;;;;;;;;;;12.00;99.90;;;;;;5051236;28;20389;-81
2022/12/22 15:31:38;;;;;;;;;;;12.00;99.90;;;;;;5051686;28;19999;-82
2022/12/22 15:34:08;;;;;;;;;;;12.10;99.90;;;;;;5051876;28;19917;-81
2022/12/22 15:36:34;;;;;;;;;;;12.10;99.90;;;;;;5052833;28;20396;-81
2022/12/22 15:38:59;;;;;;;;;;;12.00;99.90;;;;;;5051221;28;19909;-81
2022/12/22 15:41:25;;;;;;;;;;;12.10;99.90;;;;;;5052686;28;19909;-81
2022/12/22 15:43:50;;;;;;;;;;;12.00;99.90;;;;;;5041162;28;20386;-81
2022/12/22 15:46:17;;;;;;;;;;;11.90;99.90;;;;;;5033227;28;19946;-85
2022/12/22 15:48:43;;;;;;;;;;;11.90;99.90;;;;;;5016322;28;19948;-84
2022/12/22 15:51:16;;;;;;;;;;;11.80;99.90;;;;;;5016128;28;19909;-85
2022/12/22 15:53:42;;;;;;;;;;;11.80;99.90;;;;;;5015812;28;19909;-83
2022/12/22 15:56:11;;;;;;;;;;;11.80;99.90;;;;;;5033651;28;19913;-84
2022/12/22 15:58:36;;;;;;;;;;;11.80;99.90;;;;;;5016366;28;19909;-84
2022/12/22 16:01:02;;;;;;;;;;;11.80;99.90;;;;;;5017782;28;19955;-84
2022/12/22 16:03:27;;;;;;;;;;;11.80;99.90;;;;;;5019777;28;19913;-83
2022/12/22 16:05:53;;;;;;;;;;;11.70;99.90;;;;;;5037689;28;20343;-84
2022/12/22 16:08:26;;;;;;;;;;;11.70;99.90;;;;;;5020393;28;19919;-84
2022/12/22 16:10:51;;;;;;;;;;;11.60;99.90;;;;;;5021384;28;19963;-85
2022/12/22 16:13:19;;;;;;;;;;;11.60;99.90;;;;;;5021492;28;19940;-84
2022/12/22 16:15:45;;;;;;;;;;;11.50;99.90;;;;;;5021005;28;19916;-84
2022/12/22 16:18:10;;;;;;;;;;;11.50;99.90;;;;;;5020124;28;20283;-82
2022/12/22 16:20:38;;;;;;;;;;;11.40;99.90;;;;;;5036939;28;19909;-82
2022/12/22 16:23:04;;;;;;;;;;;11.40;99.90;;;;;;5018828;28;19909;-83
2022/12/22 16:25:32;;;;;;;;;;;11.40;99.90;;;;;;5018479;28;19916;-82
2022/12/22 16:28:01;;;;;;;;;;;11.40;99.90;;;;;;5018473;28;19924;-82
2022/12/22 16:30:29;;;;;;;;;;;11.30;99.90;;;;;;5036644;28;19909;-82
2022/12/22 16:32:54;;;;;;;;;;;11.30;99.90;;;;;;5018606;28;20007;-82
2022/12/22 16:35:21;;;;;;;;;;;11.30;99.90;;;;;;5018436;28;20499;-82
2022/12/22 16:37:50;;;;;;;;;;;11.30;99.90;;;;;;5018298;28;20486;-82
2022/12/22 16:40:17;;;;;;;;;;;11.20;99.90;;;;;;5036376;28;20004;-82
2022/12/22 16:42:45;;;;;;;;;;;11.20;99.90;;;;;;5017869;28;19916;-82
2022/12/22 16:45:17;;;;;;;;;;;11.20;99.90;;;;;;5036048;28;20301;-82
2022/12/22 16:47:42;;;;;;;;;;;11.10;99.90;;;;;;5018082;28;19913;-82
2022/12/22 16:50:15;;;;;;;;;;;11.00;99.90;;;;;;5017967;28;20457;-81
2022/12/22 16:52:40;;;;;;;;;;;11.00;99.90;;;;;;5018002;28;19909;-83
2022/12/22 16:55:24;;;;;;;;;;;10.90;99.90;;;;;;5035291;28;19963;-82
2022/12/22 16:57:49;;;;;;;;;;;10.80;99.90;;;;;;5017616;28;19909;-84
2022/12/22 17:00:16;;;;;;;;;;;10.80;99.90;;;;;;5017464;28;20008;-84
2022/12/22 17:02:43;;;;;;;;;;;10.80;99.90;;;;;;5016863;28;19954;-83
2022/12/22 17:05:18;;;;;;;;;;;10.70;99.90;;;;;;5035123;28;19917;-83
2022/12/22 17:07:44;;;;;;;;;;;10.70;99.90;;;;;;5017145;28;19992;-83
2022/12/22 17:10:13;;;;;;;;;;;10.70;99.90;;;;;;5017005;28;19959;-82
2022/12/22 17:12:38;;;;;;;;;;;10.70;99.90;;;;;;5033802;28;19960;-81
2022/12/22 17:15:04;;;;;;;;;;;10.70;99.90;;;;;;5034401;28;19951;-81
2022/12/22 17:17:30;;;;;;;;;;;10.60;99.90;;;;;;5016838;28;19975;-81
2022/12/22 17:19:55;;;;;;;;;;;10.60;99.90;;;;;;5016876;28;19909;-81
2022/12/22 17:22:24;;;;;;;;;;;10.60;99.90;;;;;;5016362;28;20362;-83
2022/12/22 17:24:50;;;;;;;;;;;10.60;99.90;;;;;;5016739;28;19915;-82
2022/12/22 17:27:16;;;;;;;;;;;10.50;99.90;;;;;;5016317;28;19913;-81
2022/12/22 17:29:41;;;;;;;;;;;10.40;99.90;;;;;;5016723;28;19909;-82
2022/12/22 17:32:11;;;;;;;;;;;10.40;99.90;;;;;;5012815;28;19910;-82
2022/12/22 17:34:36;;;;;;;;;;;10.40;99.90;;;;;;4996682;28;20029;-82
2022/12/22 17:37:02;;;;;;;;;;;10.40;99.90;;;;;;4996729;28;19976;-81
2022/12/22 17:39:27;;;;;;;;;;;10.40;99.90;;;;;;5013960;28;20624;-82
2022/12/22 17:41:53;;;;;;;;;;;10.40;99.90;;;;;;5013656;28;20004;-82
2022/12/22 17:44:19;;;;;;;;;;;10.40;99.90;;;;;;5039748;28;19925;-81
2022/12/22 17:46:45;;;;;;;;;;;10.40;99.90;;;;;;5032183;28;19913;-82
2022/12/22 17:49:12;;;;;;;;;;;10.40;99.90;;;;;;5033853;28;19992;-81
2022/12/22 17:51:38;;;;;;;;;;;10.50;99.90;;;;;;5033136;28;20315;-81
2022/12/22 17:54:04;;;;;;;;;;;10.50;99.90;;;;;;5032550;28;19916;-81
2022/12/22 17:56:30;;;;;;;;;;;10.50;99.90;;;;;;5033594;28;20004;-81
2022/12/22 17:58:55;;;;;;;;;;;10.50;99.90;;;;;;5033768;28;19946;-81